Terminal Aerodrome Forecast
Issued by NWS

Home | Current Version | Previous Version | Text Only | Print | Product List | Glossary On
Versions: 1 2 3 4 5 6 7 8 9 10 11 12 13
061
FTUS46 KSEW 051720
TAFBLI
TAF
KBLI 051720Z 0518/0618 VRB04KT P6SM BKN030 BKN080
     FM052200 30006KT P6SM SCT040 BKN100 BKN200
     FM060400 02006KT P6SM SCT120 SCT200=

USA.gov is the U.S. government's official web portal to all federal, state and local government web resources and services.